createdAt,value
2019-03-23T00:00:36.337Z,0.00
2019-03-23T00:01:36.370Z,0.00
2019-03-23T00:02:36.317Z,0.00
2019-03-23T00:03:36.297Z,0.00
2019-03-23T00:04:36.360Z,0.00
2019-03-23T00:05:36.274Z,0.00
2019-03-23T00:06:36.266Z,0.00
2019-03-23T00:07:36.275Z,0.00
2019-03-23T00:08:36.242Z,0.00
2019-03-23T00:09:36.239Z,0.00
2019-03-23T00:10:36.225Z,0.00
2019-03-23T00:11:36.226Z,0.00
2019-03-23T00:12:36.194Z,0.00
2019-03-23T00:13:36.217Z,0.00
2019-03-23T00:14:36.176Z,0.00
2019-03-23T00:15:36.170Z,0.00
2019-03-23T00:16:36.158Z,0.00
2019-03-23T00:17:36.686Z,0.00
2019-03-23T00:18:36.125Z,0.00
2019-03-23T00:19:36.140Z,0.00
2019-03-23T00:20:36.145Z,0.00
2019-03-23T00:21:36.097Z,0.00
2019-03-23T00:22:36.084Z,0.00
2019-03-23T00:23:36.104Z,0.00
2019-03-23T00:24:36.101Z,0.00
2019-03-23T00:25:36.050Z,0.00
2019-03-23T00:26:36.032Z,0.00
2019-03-23T00:27:36.034Z,0.00
2019-03-23T00:28:36.014Z,0.00
2019-03-23T00:29:36.013Z,0.00
2019-03-23T00:30:36.012Z,0.00
2019-03-23T00:31:36.002Z,0.00
2019-03-23T00:32:36.001Z,0.00
2019-03-23T00:33:35.967Z,0.00
2019-03-23T00:34:35.946Z,0.00
2019-03-23T00:35:35.962Z,0.00
2019-03-23T00:36:41.493Z,0.00
2019-03-23T00:37:36.916Z,0.00
2019-03-23T00:38:35.908Z,0.00
2019-03-23T00:39:35.892Z,0.00
2019-03-23T00:40:35.883Z,0.00
2019-03-23T00:41:35.958Z,0.00
2019-03-23T00:42:35.864Z,0.00
2019-03-23T00:43:35.853Z,0.00
2019-03-23T00:44:35.896Z,0.00
2019-03-23T00:45:35.829Z,0.00
2019-03-23T00:46:35.853Z,0.00
2019-03-23T00:47:35.807Z,0.00
2019-03-23T00:48:35.792Z,0.00
2019-03-23T00:49:35.775Z,0.00
2019-03-23T00:50:35.773Z,0.00
2019-03-23T00:51:35.764Z,0.00
2019-03-23T00:52:35.768Z,0.00
2019-03-23T00:53:35.741Z,0.00
2019-03-23T00:54:35.725Z,0.00
2019-03-23T00:55:35.711Z,0.00
2019-03-23T00:56:35.738Z,0.00
2019-03-23T00:57:35.690Z,0.00
2019-03-23T00:58:35.674Z,0.00
2019-03-23T00:59:35.667Z,0.00
2019-03-23T01:00:35.714Z,0.00
2019-03-23T01:01:35.683Z,0.00
2019-03-23T01:02:35.632Z,0.00
2019-03-23T01:03:35.626Z,0.00
2019-03-23T01:04:35.608Z,0.00
2019-03-23T01:05:35.607Z,0.00
2019-03-23T01:06:35.590Z,0.00
2019-03-23T01:07:35.600Z,0.00
2019-03-23T01:08:35.593Z,0.00
2019-03-23T01:09:35.590Z,0.00
2019-03-23T01:10:35.557Z,0.00
2019-03-23T01:11:35.542Z,0.00
2019-03-23T01:12:35.526Z,0.00
2019-03-23T01:13:35.531Z,0.00
2019-03-23T01:14:35.499Z,0.00
2019-03-23T01:15:35.484Z,0.00
2019-03-23T01:16:35.526Z,0.00
2019-03-23T01:17:35.472Z,0.00
2019-03-23T01:18:35.456Z,0.00
2019-03-23T01:19:35.551Z,0.00
2019-03-23T01:20:35.432Z,0.00
2019-03-23T01:21:35.418Z,0.00
2019-03-23T01:22:35.435Z,0.00
2019-03-23T01:23:35.415Z,0.00
2019-03-23T01:24:35.414Z,0.00
2019-03-23T01:25:35.375Z,0.00
2019-03-23T01:26:35.373Z,0.00
2019-03-23T01:27:35.425Z,0.00
2019-03-23T01:28:35.344Z,0.00
2019-03-23T01:29:35.377Z,0.00
2019-03-23T01:30:35.328Z,0.00
2019-03-23T01:31:35.307Z,0.00
2019-03-23T01:32:35.294Z,0.00
2019-03-23T01:33:35.284Z,0.00
2019-03-23T01:34:35.281Z,0.00
2019-03-23T01:35:35.301Z,0.00
2019-03-23T01:36:35.266Z,0.00
2019-03-23T01:37:35.239Z,0.00
2019-03-23T01:38:35.225Z,0.00
2019-03-23T01:39:35.221Z,0.00
2019-03-23T01:40:36.459Z,0.00
2019-03-23T01:41:35.229Z,0.00
2019-03-23T01:42:35.190Z,0.00
2019-03-23T01:43:35.254Z,0.00
2019-03-23T01:44:35.178Z,0.00
2019-03-23T01:45:35.155Z,0.00
2019-03-23T01:46:35.225Z,0.00
2019-03-23T01:47:35.148Z,0.00
2019-03-23T01:48:35.119Z,0.00
2019-03-23T01:49:35.107Z,0.00
2019-03-23T01:50:35.100Z,0.00
2019-03-23T01:51:35.087Z,0.00
2019-03-23T01:52:35.082Z,0.00
2019-03-23T01:53:35.083Z,0.00
2019-03-23T01:54:35.053Z,0.00
2019-03-23T01:55:35.044Z,0.00
2019-03-23T01:56:35.025Z,0.00
2019-03-23T01:57:35.016Z,0.00
2019-03-23T01:58:35.043Z,0.00
2019-03-23T01:59:35.072Z,0.00
2019-03-23T02:00:35.008Z,0.00
2019-03-23T02:01:34.969Z,0.00
2019-03-23T02:02:34.977Z,0.00
2019-03-23T02:03:34.954Z,0.00
2019-03-23T02:04:34.961Z,0.00
2019-03-23T02:05:34.927Z,0.00
2019-03-23T02:06:34.919Z,0.00
2019-03-23T02:07:34.908Z,0.00
2019-03-23T02:08:34.892Z,0.00
2019-03-23T02:09:34.906Z,0.00
2019-03-23T02:10:34.870Z,0.00
2019-03-23T02:11:34.938Z,0.00
2019-03-23T02:12:34.893Z,0.00
2019-03-23T02:13:34.844Z,0.00
2019-03-23T02:14:34.855Z,0.00
2019-03-23T02:15:34.818Z,0.00
2019-03-23T02:16:34.804Z,0.00
2019-03-23T02:17:34.812Z,0.00
2019-03-23T02:18:34.781Z,0.00
2019-03-23T02:19:34.777Z,0.00
2019-03-23T02:20:34.791Z,0.00
2019-03-23T02:21:34.758Z,0.00
2019-03-23T02:22:34.744Z,0.00
2019-03-23T02:23:34.755Z,0.00
2019-03-23T02:24:34.754Z,0.00
2019-03-23T02:25:34.703Z,0.00
2019-03-23T02:26:34.719Z,0.00
2019-03-23T02:27:34.687Z,0.00
2019-03-23T02:28:34.670Z,0.00
2019-03-23T02:29:34.670Z,0.00
2019-03-23T02:30:34.680Z,0.00
2019-03-23T02:31:34.647Z,0.00
2019-03-23T02:32:34.645Z,0.00
2019-03-23T02:33:34.618Z,0.00
2019-03-23T02:34:34.617Z,0.00
2019-03-23T02:35:34.628Z,0.00
2019-03-23T02:36:34.589Z,0.00
2019-03-23T02:37:34.573Z,0.00
2019-03-23T02:38:34.557Z,0.00
2019-03-23T02:39:34.673Z,0.00
2019-03-23T02:40:34.539Z,0.00
2019-03-23T02:41:34.541Z,0.00
2019-03-23T02:42:34.650Z,0.00
2019-03-23T02:43:34.503Z,0.00
2019-03-23T02:44:34.496Z,0.00
2019-03-23T02:45:34.524Z,0.00
2019-03-23T02:46:34.468Z,0.00
2019-03-23T02:47:34.458Z,0.00
2019-03-23T02:48:34.474Z,0.00
2019-03-23T02:49:34.459Z,0.00
2019-03-23T02:50:34.478Z,0.00
2019-03-23T02:51:34.437Z,0.00
2019-03-23T02:52:34.406Z,0.00
2019-03-23T02:53:34.391Z,0.00
2019-03-23T02:54:34.390Z,0.00
2019-03-23T02:55:34.388Z,0.00
2019-03-23T02:56:34.388Z,0.00
2019-03-23T02:57:34.341Z,0.00
2019-03-23T02:58:34.338Z,0.00
2019-03-23T02:59:34.327Z,0.00
2019-03-23T03:00:34.311Z,0.00
2019-03-23T03:01:34.322Z,0.00
2019-03-23T03:02:34.286Z,0.00
2019-03-23T03:03:34.273Z,0.00
2019-03-23T03:04:34.269Z,0.00
2019-03-23T03:05:34.259Z,0.00
2019-03-23T03:06:34.257Z,0.00
2019-03-23T03:07:42.140Z,0.00
2019-03-23T03:08:35.240Z,0.00
2019-03-23T03:09:34.257Z,0.00
2019-03-23T03:10:34.197Z,0.00
2019-03-23T03:11:34.191Z,0.00
2019-03-23T03:12:34.249Z,0.00
2019-03-23T03:13:34.173Z,0.00
2019-03-23T03:14:34.171Z,0.00
2019-03-23T03:15:34.143Z,0.00
2019-03-23T03:16:34.148Z,0.00
2019-03-23T03:17:34.124Z,0.00
2019-03-23T03:18:34.107Z,0.00
2019-03-23T03:19:34.109Z,0.00
2019-03-23T03:20:34.111Z,0.00
2019-03-23T03:21:34.093Z,0.00
2019-03-23T03:22:34.066Z,0.00
2019-03-23T03:23:34.070Z,0.00
2019-03-23T03:24:34.038Z,0.00
2019-03-23T03:25:34.076Z,0.00
2019-03-23T03:26:34.016Z,0.00
2019-03-23T03:27:34.010Z,0.00
2019-03-23T03:28:34.075Z,0.00
2019-03-23T03:29:33.985Z,0.00
2019-03-23T03:30:34.005Z,0.00
2019-03-23T03:31:33.972Z,0.00
2019-03-23T03:32:33.951Z,0.00
2019-03-23T03:33:33.938Z,0.00
2019-03-23T03:34:33.922Z,0.00
2019-03-23T03:35:33.911Z,0.00
2019-03-23T03:36:33.939Z,0.00
2019-03-23T03:37:33.888Z,0.00
2019-03-23T03:38:33.876Z,0.00
2019-03-23T03:39:33.869Z,0.00
2019-03-23T03:40:33.877Z,0.00
2019-03-23T03:41:33.851Z,0.00
2019-03-23T03:42:33.846Z,0.00
2019-03-23T03:43:33.857Z,0.00
2019-03-23T03:44:33.838Z,0.00
2019-03-23T03:45:33.807Z,0.00
2019-03-23T03:46:33.791Z,0.00
2019-03-23T03:47:33.809Z,0.00
2019-03-23T03:48:33.774Z,0.00
2019-03-23T03:49:33.827Z,0.00
2019-03-23T03:50:33.752Z,0.00
2019-03-23T03:51:33.746Z,0.00
2019-03-23T03:52:33.766Z,0.00
2019-03-23T03:53:33.753Z,0.00
2019-03-23T03:54:33.701Z,0.00
2019-03-23T03:55:33.687Z,0.00
2019-03-23T03:56:33.676Z,0.00
2019-03-23T03:57:33.659Z,0.00
2019-03-23T03:58:33.656Z,0.00
2019-03-23T03:59:33.677Z,0.00
2019-03-23T04:00:33.647Z,0.00
2019-03-23T04:01:33.628Z,0.00
2019-03-23T04:02:33.605Z,0.00
2019-03-23T04:03:33.595Z,0.00
2019-03-23T04:04:33.583Z,0.00
2019-03-23T04:05:33.625Z,0.00
2019-03-23T04:06:33.559Z,0.00
2019-03-23T04:07:33.558Z,0.00
2019-03-23T04:08:33.654Z,0.00
2019-03-23T04:09:33.530Z,0.00
2019-03-23T04:10:33.521Z,0.00
2019-03-23T04:11:33.598Z,0.00
2019-03-23T04:12:33.512Z,0.00
2019-03-23T04:13:33.496Z,0.00
2019-03-23T04:14:33.514Z,0.00
2019-03-23T04:15:33.458Z,0.00
2019-03-23T04:16:33.457Z,0.00
2019-03-23T04:17:33.466Z,0.00
2019-03-23T04:18:33.439Z,0.00
2019-03-23T04:19:33.422Z,0.00
2019-03-23T04:20:33.405Z,0.00
2019-03-23T04:21:33.393Z,0.00
2019-03-23T04:22:33.407Z,0.00
2019-03-23T04:23:33.367Z,0.00
2019-03-23T04:24:33.365Z,0.00
2019-03-23T04:25:33.355Z,0.00
2019-03-23T04:26:33.334Z,0.00
2019-03-23T04:27:33.326Z,0.00
2019-03-23T04:28:33.335Z,0.00
2019-03-23T04:29:33.304Z,0.00
2019-03-23T04:30:33.307Z,0.00
2019-03-23T04:31:33.295Z,0.00
2019-03-23T04:32:33.397Z,0.00
2019-03-23T04:33:33.284Z,0.00
2019-03-23T04:34:33.256Z,0.00
2019-03-23T04:35:33.274Z,0.00
2019-03-23T04:36:33.228Z,0.00
2019-03-23T04:37:33.246Z,0.00
2019-03-23T04:38:33.202Z,0.00
2019-03-23T04:39:33.214Z,0.00
2019-03-23T04:40:33.186Z,0.00
2019-03-23T04:41:33.170Z,0.00
2019-03-23T04:42:33.160Z,0.00
2019-03-23T04:43:33.149Z,0.00
2019-03-23T04:44:33.160Z,0.00
2019-03-23T04:45:33.143Z,0.00
2019-03-23T04:46:33.110Z,0.00
2019-03-23T04:47:33.100Z,0.00
2019-03-23T04:48:33.092Z,0.00
2019-03-23T04:49:33.145Z,0.00
2019-03-23T04:50:33.069Z,0.00
2019-03-23T04:51:33.067Z,0.00
2019-03-23T04:52:33.043Z,0.00
2019-03-23T04:53:33.044Z,0.00
2019-03-23T04:54:33.187Z,0.00
2019-03-23T04:55:33.013Z,0.00
2019-03-23T04:56:33.002Z,0.00
2019-03-23T04:57:32.988Z,0.00
2019-03-23T04:58:32.979Z,0.00
2019-03-23T04:59:32.968Z,0.00
2019-03-23T05:00:32.979Z,0.00
2019-03-23T05:01:32.949Z,0.00
2019-03-23T05:02:33.110Z,0.00
2019-03-23T05:03:32.925Z,0.00
2019-03-23T05:04:32.915Z,0.00
2019-03-23T05:05:32.909Z,0.00
2019-03-23T05:06:32.889Z,0.00
2019-03-23T05:07:32.882Z,0.00
2019-03-23T05:08:33.791Z,0.00
2019-03-23T05:09:32.859Z,4.00
2019-03-23T05:10:32.848Z,4.00
2019-03-23T05:11:32.839Z,4.00
2019-03-23T05:12:32.834Z,4.00
2019-03-23T05:13:32.836Z,4.00
2019-03-23T05:14:32.805Z,4.00
2019-03-23T05:15:32.798Z,4.00
2019-03-23T05:16:32.779Z,8.00
2019-03-23T05:17:32.776Z,8.00
2019-03-23T05:18:32.818Z,8.00
2019-03-23T05:19:32.785Z,12.00
2019-03-23T05:20:32.766Z,12.00
2019-03-23T05:21:32.733Z,16.00
2019-03-23T05:22:32.716Z,16.00
2019-03-23T05:23:32.702Z,16.00
2019-03-23T05:24:32.698Z,20.00
2019-03-23T05:25:32.700Z,20.00
2019-03-23T05:26:32.695Z,20.00
2019-03-23T05:27:32.668Z,20.00
2019-03-23T05:28:32.654Z,20.00
2019-03-23T05:29:32.635Z,24.00
2019-03-23T05:30:32.630Z,24.00
2019-03-23T05:31:32.622Z,28.00
2019-03-23T05:32:32.631Z,28.00
2019-03-23T05:33:32.590Z,28.00
2019-03-23T05:34:32.672Z,32.00
2019-03-23T05:35:32.569Z,36.00
2019-03-23T05:36:32.561Z,40.00
2019-03-23T05:37:32.599Z,48.00
2019-03-23T05:38:32.548Z,48.00
2019-03-23T05:39:32.531Z,56.00
2019-03-23T05:40:32.524Z,68.00
2019-03-23T05:41:32.504Z,72.00
2019-03-23T05:42:32.495Z,68.00
2019-03-23T05:43:32.536Z,72.00
2019-03-23T05:44:32.517Z,72.00
2019-03-23T05:45:32.455Z,76.00
2019-03-23T05:46:32.471Z,84.00
2019-03-23T05:47:32.460Z,88.00
2019-03-23T05:48:32.467Z,104.00
2019-03-23T05:49:32.477Z,108.00
2019-03-23T05:50:32.422Z,116.00
2019-03-23T05:51:32.453Z,112.00
2019-03-23T05:52:32.428Z,112.00
2019-03-23T05:53:32.384Z,112.00
2019-03-23T05:54:32.367Z,124.00
2019-03-23T05:55:32.402Z,140.00
2019-03-23T05:56:32.335Z,144.00
2019-03-23T05:57:32.348Z,144.00
2019-03-23T05:58:32.333Z,140.00
2019-03-23T05:59:32.344Z,172.00
2019-03-23T06:00:32.313Z,188.00
2019-03-23T06:01:32.434Z,192.00
2019-03-23T06:02:32.279Z,180.00
2019-03-23T06:03:32.261Z,168.00
2019-03-23T06:04:32.303Z,172.00
2019-03-23T06:05:32.308Z,184.00
2019-03-23T06:06:32.228Z,200.00
2019-03-23T06:07:32.217Z,196.00
2019-03-23T06:08:32.203Z,196.00
2019-03-23T06:09:32.236Z,200.00
2019-03-23T06:10:32.182Z,208.00
2019-03-23T06:11:32.207Z,212.00
2019-03-23T06:12:32.175Z,200.00
2019-03-23T06:13:32.146Z,192.00
2019-03-23T06:14:32.137Z,188.00
2019-03-23T06:15:32.123Z,192.00
2019-03-23T06:16:32.129Z,208.00
2019-03-23T06:17:32.284Z,204.00
2019-03-23T06:18:32.102Z,200.00
2019-03-23T06:19:32.088Z,208.00
2019-03-23T06:20:32.134Z,212.00
2019-03-23T06:21:32.088Z,208.00
2019-03-23T06:22:32.054Z,216.00
2019-03-23T06:23:32.038Z,220.00
2019-03-23T06:24:32.023Z,224.00
2019-03-23T06:25:32.076Z,244.00
2019-03-23T06:26:31.998Z,296.00
2019-03-23T06:27:32.021Z,308.00
2019-03-23T06:28:31.975Z,312.00
2019-03-23T06:29:31.975Z,320.00
2019-03-23T06:30:31.970Z,332.00
2019-03-23T06:31:31.948Z,336.00
2019-03-23T06:32:31.953Z,336.00
2019-03-23T06:33:31.981Z,320.00
2019-03-23T06:34:31.918Z,340.00
2019-03-23T06:35:31.905Z,352.00
2019-03-23T06:36:31.908Z,372.00
2019-03-23T06:37:31.907Z,352.00
2019-03-23T06:38:31.871Z,372.00
2019-03-23T06:39:31.859Z,424.00
2019-03-23T06:40:31.854Z,476.00
2019-03-23T06:41:32.005Z,476.00
2019-03-23T06:42:31.859Z,528.00
2019-03-23T06:43:31.843Z,528.00
2019-03-23T06:44:31.855Z,532.00
2019-03-23T06:45:31.851Z,588.00
2019-03-23T06:46:31.783Z,592.00
2019-03-23T06:47:31.811Z,564.00
2019-03-23T06:48:31.759Z,568.00
2019-03-23T06:49:31.779Z,596.00
2019-03-23T06:50:31.740Z,596.00
2019-03-23T06:51:31.732Z,632.00
2019-03-23T06:52:31.709Z,668.00
2019-03-23T06:53:31.745Z,664.00
2019-03-23T06:54:31.695Z,660.00
2019-03-23T06:55:31.714Z,720.00
2019-03-23T06:56:31.677Z,744.00
2019-03-23T06:57:31.670Z,704.00
2019-03-23T06:58:31.649Z,692.00
2019-03-23T06:59:31.637Z,664.00
2019-03-23T07:00:31.671Z,644.00
2019-03-23T07:01:31.636Z,612.00
2019-03-23T07:02:31.602Z,628.00
2019-03-23T07:03:31.590Z,676.00
2019-03-23T07:04:31.576Z,688.00
2019-03-23T07:05:31.576Z,768.00
2019-03-23T07:06:31.556Z,796.00
2019-03-23T07:07:31.571Z,732.00
2019-03-23T07:08:32.364Z,744.00
2019-03-23T07:09:31.520Z,812.00
2019-03-23T07:10:31.510Z,868.00
2019-03-23T07:11:31.509Z,916.00
2019-03-23T07:12:31.518Z,884.00
2019-03-23T07:13:31.494Z,848.00
2019-03-23T07:14:31.471Z,832.00
2019-03-23T07:15:31.465Z,836.00
2019-03-23T07:16:31.486Z,824.00
2019-03-23T07:17:31.453Z,924.00
2019-03-23T07:18:31.443Z,980.00
2019-03-23T07:19:31.424Z,1020.00
2019-03-23T07:20:31.409Z,1016.00
2019-03-23T07:21:31.391Z,1024.00
2019-03-23T07:22:31.382Z,1072.00
2019-03-23T07:23:31.416Z,1056.00
2019-03-23T07:24:31.365Z,1032.00
2019-03-23T07:25:31.351Z,1044.00
2019-03-23T07:26:31.337Z,1096.00
2019-03-23T07:27:31.323Z,1168.00
2019-03-23T07:28:31.309Z,1316.00
2019-03-23T07:29:31.343Z,1364.00
2019-03-23T07:30:31.288Z,1352.00
2019-03-23T07:31:31.282Z,1376.00
2019-03-23T07:32:31.275Z,1444.00
2019-03-23T07:33:31.254Z,1388.00
2019-03-23T07:34:31.244Z,1344.00
2019-03-23T07:35:31.263Z,1400.00
2019-03-23T07:36:31.223Z,1372.00
2019-03-23T07:37:31.378Z,1392.00
2019-03-23T07:38:31.218Z,1452.00
2019-03-23T07:39:31.192Z,1420.00
2019-03-23T07:40:31.231Z,1368.00
2019-03-23T07:41:31.160Z,1332.00
2019-03-23T07:42:31.155Z,1336.00
2019-03-23T07:43:31.181Z,1320.00
2019-03-23T07:44:31.183Z,1208.00
2019-03-23T07:45:31.160Z,1200.00
2019-03-23T07:46:31.110Z,1196.00
2019-03-23T07:47:31.096Z,1160.00
2019-03-23T07:48:31.096Z,1200.00
2019-03-23T07:49:31.074Z,1268.00
2019-03-23T07:50:31.087Z,1276.00
2019-03-23T07:51:31.058Z,1260.00
2019-03-23T07:52:31.069Z,1236.00
2019-03-23T07:53:31.110Z,1192.00
2019-03-23T07:54:31.023Z,1176.00
2019-03-23T07:55:31.019Z,1236.00
2019-03-23T07:56:31.775Z,1312.00
2019-03-23T07:57:31.020Z,1496.00
2019-03-23T07:58:31.006Z,1652.00
2019-03-23T07:59:30.971Z,1732.00
2019-03-23T08:00:30.954Z,1820.00
2019-03-23T08:01:30.943Z,1844.00
2019-03-23T08:02:30.964Z,1728.00
2019-03-23T08:03:30.938Z,1720.00
2019-03-23T08:04:30.908Z,1824.00
2019-03-23T08:05:30.897Z,1832.00
2019-03-23T08:06:30.887Z,1744.00
2019-03-23T08:07:30.876Z,1680.00
2019-03-23T08:08:30.948Z,1800.00
2019-03-23T08:09:37.706Z,1852.00
2019-03-23T08:10:31.848Z,1920.00
2019-03-23T08:11:30.835Z,1944.00
2019-03-23T08:12:30.821Z,2040.00
2019-03-23T08:13:30.958Z,1900.00
2019-03-23T08:14:30.826Z,1752.00
2019-03-23T08:15:30.790Z,1744.00
2019-03-23T08:16:30.790Z,1780.00
2019-03-23T08:17:30.760Z,1840.00
2019-03-23T08:18:30.752Z,1824.00
2019-03-23T08:19:30.781Z,1772.00
2019-03-23T08:20:30.878Z,1756.00
2019-03-23T08:21:30.715Z,1828.00
2019-03-23T08:22:30.707Z,1860.00
2019-03-23T08:23:30.761Z,1840.00
2019-03-23T08:24:30.688Z,1796.00
2019-03-23T08:25:30.676Z,1712.00
2019-03-23T08:26:30.686Z,1756.00
2019-03-23T08:27:30.647Z,1956.00
2019-03-23T08:28:32.374Z,2028.00
2019-03-23T08:29:30.630Z,1984.00
2019-03-23T08:30:30.617Z,1984.00
2019-03-23T08:31:30.606Z,2068.00
2019-03-23T08:32:30.617Z,2216.00
2019-03-23T08:33:30.582Z,2256.00
2019-03-23T08:34:30.569Z,2156.00
2019-03-23T08:35:30.592Z,2016.00
2019-03-23T08:36:30.668Z,1948.00
2019-03-23T08:37:30.538Z,2008.00
2019-03-23T08:38:30.530Z,1968.00
2019-03-23T08:39:30.653Z,1980.00
2019-03-23T08:40:30.500Z,2016.00
2019-03-23T08:41:30.510Z,2036.00
2019-03-23T08:42:30.503Z,1948.00
2019-03-23T08:43:30.476Z,1924.00
2019-03-23T08:44:31.631Z,1900.00
2019-03-23T08:45:30.455Z,1800.00
2019-03-23T08:46:30.439Z,1696.00
2019-03-23T08:47:30.437Z,1656.00
2019-03-23T08:48:30.412Z,1608.00
2019-03-23T08:49:30.398Z,1616.00
2019-03-23T08:50:30.404Z,1720.00
2019-03-23T08:51:30.392Z,1732.00
2019-03-23T08:52:30.378Z,1792.00
2019-03-23T08:53:30.407Z,1876.00
2019-03-23T08:54:30.384Z,1868.00
2019-03-23T08:55:30.349Z,1800.00
2019-03-23T08:56:30.328Z,1936.00
2019-03-23T08:57:30.312Z,2068.00
2019-03-23T08:58:30.308Z,2008.00
2019-03-23T08:59:30.297Z,1980.00
2019-03-23T09:00:30.310Z,2064.00
2019-03-23T09:01:30.274Z,2172.00
2019-03-23T09:02:30.285Z,2224.00
2019-03-23T09:03:30.332Z,2300.00
2019-03-23T09:04:30.234Z,2280.00
2019-03-23T09:05:30.246Z,2288.00
2019-03-23T09:06:30.224Z,2204.00
2019-03-23T09:07:30.229Z,2088.00
2019-03-23T09:08:30.195Z,1960.00
2019-03-23T09:09:30.188Z,1784.00
2019-03-23T09:10:30.174Z,2036.00
2019-03-23T09:11:30.180Z,2200.00
2019-03-23T09:12:30.148Z,2128.00
2019-03-23T09:13:39.980Z,2120.00
2019-03-23T09:14:31.211Z,2116.00
2019-03-23T09:15:30.113Z,2068.00
2019-03-23T09:16:30.102Z,1892.00
2019-03-23T09:17:30.106Z,1812.00
2019-03-23T09:18:30.102Z,1912.00
2019-03-23T09:19:30.143Z,1880.00
2019-03-23T09:20:30.063Z,1816.00
2019-03-23T09:21:30.043Z,1764.00
2019-03-23T09:22:30.090Z,1696.00
2019-03-23T09:23:30.032Z,1456.00
2019-03-23T09:24:30.035Z,1444.00
2019-03-23T09:25:30.000Z,1460.00
2019-03-23T09:26:29.994Z,1456.00
2019-03-23T09:27:29.982Z,1536.00
2019-03-23T09:28:30.002Z,1676.00
2019-03-23T09:29:29.983Z,1800.00
2019-03-23T09:30:29.942Z,1816.00
2019-03-23T09:31:30.004Z,1820.00
2019-03-23T09:32:29.925Z,1812.00
2019-03-23T09:33:29.916Z,1832.00
2019-03-23T09:34:29.939Z,1896.00
2019-03-23T09:35:29.979Z,1960.00
2019-03-23T09:36:29.888Z,2108.00
2019-03-23T09:37:29.877Z,2172.00
2019-03-23T09:38:29.857Z,2156.00
2019-03-23T09:39:29.847Z,2160.00
2019-03-23T09:40:29.860Z,2140.00
2019-03-23T09:41:29.828Z,2124.00
2019-03-23T09:42:29.873Z,2224.00
2019-03-23T09:43:29.947Z,2604.00
2019-03-23T09:44:29.826Z,2996.00
2019-03-23T09:45:29.782Z,3264.00
2019-03-23T09:46:29.833Z,3616.00
2019-03-23T09:47:29.766Z,4036.00
2019-03-23T09:48:29.756Z,4300.00
2019-03-23T09:49:29.759Z,4336.00
2019-03-23T09:50:29.736Z,4352.00
2019-03-23T09:51:29.714Z,4360.00
2019-03-23T09:52:29.701Z,4432.00
2019-03-23T09:53:29.690Z,4696.00
2019-03-23T09:54:29.678Z,4912.00
2019-03-23T09:55:29.687Z,4976.00
2019-03-23T09:56:29.655Z,4860.00
2019-03-23T09:57:29.644Z,4688.00
2019-03-23T09:58:29.638Z,4484.00
2019-03-23T09:59:29.748Z,4384.00
2019-03-23T10:00:29.617Z,4420.00
2019-03-23T10:01:29.601Z,4388.00
2019-03-23T10:02:29.674Z,4228.00
2019-03-23T10:03:29.584Z,4072.00
2019-03-23T10:04:29.562Z,4120.00
2019-03-23T10:05:29.576Z,4080.00
2019-03-23T10:06:29.567Z,4100.00
2019-03-23T10:07:29.531Z,4116.00
2019-03-23T10:08:29.560Z,3868.00
2019-03-23T10:09:29.533Z,3664.00
2019-03-23T10:10:29.500Z,3636.00
2019-03-23T10:11:29.521Z,3688.00
2019-03-23T10:12:29.473Z,3588.00
2019-03-23T10:13:29.513Z,3396.00
2019-03-23T10:14:29.450Z,3364.00
2019-03-23T10:15:29.547Z,3448.00
2019-03-23T10:16:29.428Z,3496.00
2019-03-23T10:17:29.444Z,3280.00
2019-03-23T10:18:29.462Z,3044.00
2019-03-23T10:19:29.410Z,2980.00
2019-03-23T10:20:29.394Z,2952.00
2019-03-23T10:21:29.425Z,2952.00
2019-03-23T10:22:29.380Z,3008.00
2019-03-23T10:23:29.386Z,3068.00
2019-03-23T10:24:29.344Z,2944.00
2019-03-23T10:25:29.340Z,2744.00
2019-03-23T10:26:29.343Z,2724.00
2019-03-23T10:27:29.307Z,2820.00
2019-03-23T10:28:29.296Z,2916.00
2019-03-23T10:29:29.313Z,2964.00
2019-03-23T10:30:29.310Z,3024.00
2019-03-23T10:31:29.271Z,3292.00
2019-03-23T10:32:29.251Z,3872.00
2019-03-23T10:33:29.243Z,4512.00
2019-03-23T10:34:29.251Z,4856.00
2019-03-23T10:35:29.231Z,5152.00
2019-03-23T10:36:29.205Z,5728.00
2019-03-23T10:37:29.200Z,6152.00
2019-03-23T10:38:29.193Z,6268.00
2019-03-23T10:39:29.175Z,6236.00
2019-03-23T10:40:32.630Z,6284.00
2019-03-23T10:41:29.169Z,6388.00
2019-03-23T10:42:29.250Z,6460.00
2019-03-23T10:43:29.129Z,6584.00
2019-03-23T10:44:29.119Z,6740.00
2019-03-23T10:45:29.129Z,6788.00
2019-03-23T10:46:29.121Z,6852.00
2019-03-23T10:47:29.158Z,6872.00
2019-03-23T10:48:29.082Z,6644.00
2019-03-23T10:49:29.068Z,6424.00
2019-03-23T10:50:29.054Z,6192.00
2019-03-23T10:51:29.042Z,6140.00
2019-03-23T10:52:29.066Z,6352.00
2019-03-23T10:53:29.039Z,6688.00
2019-03-23T10:54:29.005Z,6804.00
2019-03-23T10:55:29.000Z,6608.00
2019-03-23T10:56:29.016Z,6232.00
2019-03-23T10:57:28.974Z,6232.00
2019-03-23T10:58:29.810Z,6312.00
2019-03-23T10:59:28.951Z,6304.00
2019-03-23T11:00:28.967Z,6560.00
2019-03-23T11:01:28.945Z,7012.00
2019-03-23T11:02:28.971Z,7728.00
2019-03-23T11:03:28.910Z,8088.00
2019-03-23T11:04:28.915Z,7948.00
2019-03-23T11:05:28.892Z,7496.00
2019-03-23T11:06:28.866Z,6904.00
2019-03-23T11:07:28.855Z,6672.00
2019-03-23T11:08:28.869Z,7148.00
2019-03-23T11:09:28.843Z,7848.00
2019-03-23T11:10:28.830Z,7964.00
2019-03-23T11:11:28.813Z,7396.00
2019-03-23T11:12:28.809Z,7152.00
2019-03-23T11:13:28.817Z,7348.00
2019-03-23T11:14:28.780Z,7412.00
2019-03-23T11:15:28.771Z,7236.00
2019-03-23T11:16:28.763Z,7080.00
2019-03-23T11:17:28.745Z,7276.00
2019-03-23T11:18:28.782Z,7460.00
2019-03-23T11:19:28.724Z,7080.00
2019-03-23T11:20:28.718Z,6660.00
2019-03-23T11:21:28.707Z,6576.00
2019-03-23T11:22:28.687Z,6228.00
2019-03-23T11:23:28.684Z,5788.00
2019-03-23T11:24:28.699Z,5420.00
2019-03-23T11:25:28.686Z,5344.00
2019-03-23T11:26:28.651Z,5528.00
2019-03-23T11:27:28.637Z,5832.00
2019-03-23T11:28:28.628Z,6476.00
2019-03-23T11:29:28.654Z,7120.00
2019-03-23T11:30:28.610Z,7532.00
2019-03-23T11:31:28.599Z,7484.00
2019-03-23T11:32:28.580Z,7156.00
2019-03-23T11:33:28.562Z,7020.00
2019-03-23T11:34:28.568Z,6996.00
2019-03-23T11:35:28.576Z,7044.00
2019-03-23T11:36:28.539Z,7032.00
2019-03-23T11:37:28.688Z,7144.00
2019-03-23T11:38:28.509Z,7332.00
2019-03-23T11:39:28.507Z,7504.00
2019-03-23T11:40:28.545Z,7592.00
2019-03-23T11:41:29.315Z,7588.00
2019-03-23T11:42:28.479Z,7632.00
2019-03-23T11:43:28.465Z,7768.00
2019-03-23T11:44:28.467Z,7840.00
2019-03-23T11:45:28.435Z,7796.00
2019-03-23T11:46:28.470Z,8040.00
2019-03-23T11:47:28.427Z,8480.00
2019-03-23T11:48:28.409Z,8612.00
2019-03-23T11:49:28.393Z,8640.00
2019-03-23T11:50:28.402Z,8780.00
2019-03-23T11:51:28.373Z,8960.00
2019-03-23T11:52:28.376Z,9348.00
2019-03-23T11:53:28.342Z,8892.00
2019-03-23T11:54:28.330Z,8516.00
2019-03-23T11:55:28.328Z,7884.00
2019-03-23T11:56:30.502Z,7776.00
2019-03-23T11:57:28.309Z,7460.00
2019-03-23T11:58:28.320Z,6920.00
2019-03-23T11:59:28.279Z,6496.00
2019-03-23T12:00:28.270Z,6188.00
2019-03-23T12:01:28.282Z,5964.00
2019-03-23T12:02:28.268Z,5636.00
2019-03-23T12:03:28.254Z,5388.00
2019-03-23T12:04:28.245Z,5352.00
2019-03-23T12:05:28.210Z,5236.00
2019-03-23T12:06:28.197Z,5084.00
2019-03-23T12:07:28.189Z,4884.00
2019-03-23T12:08:28.299Z,4640.00
2019-03-23T12:09:28.189Z,4304.00
2019-03-23T12:10:28.205Z,4000.00
2019-03-23T12:11:28.229Z,3828.00
2019-03-23T12:12:28.137Z,3568.00
2019-03-23T12:13:28.123Z,3392.00
2019-03-23T12:14:28.113Z,3384.00
2019-03-23T12:15:29.820Z,3416.00
2019-03-23T12:16:28.123Z,3380.00
2019-03-23T12:17:28.071Z,3340.00
2019-03-23T12:18:28.083Z,3484.00
2019-03-23T12:19:28.054Z,3744.00
2019-03-23T12:20:28.042Z,4108.00
2019-03-23T12:21:28.051Z,4480.00
2019-03-23T12:22:28.053Z,4740.00
2019-03-23T12:23:28.040Z,4868.00
2019-03-23T12:24:28.155Z,4988.00
2019-03-23T12:25:27.986Z,5048.00
2019-03-23T12:26:28.004Z,4992.00
2019-03-23T12:27:28.002Z,4736.00
2019-03-23T12:28:27.964Z,4532.00
2019-03-23T12:29:27.968Z,4492.00
2019-03-23T12:30:27.942Z,4504.00
2019-03-23T12:31:27.922Z,4452.00
2019-03-23T12:32:27.907Z,4352.00
2019-03-23T12:33:27.896Z,4316.00
2019-03-23T12:34:27.889Z,4388.00
2019-03-23T12:35:27.899Z,4396.00
2019-03-23T12:36:27.864Z,4332.00
2019-03-23T12:37:27.887Z,4324.00
2019-03-23T12:38:27.837Z,4292.00
2019-03-23T12:39:27.895Z,4196.00